18/04/2024

Boletín informativo HCV

PRETICOR núm. 3 elaborado por UT902, marzo 2024. Meteorología > Observaciones > Humedad Combustible

16/04/2024

Prohibición quemas

Por resolución de 15 de abril de 2024 de la Generalitat Valenciana, quedan prohibidas las cremas del 15 de abril al 15 de octubre de 2024. Ver

25/03/2024

Espurna febrero 2024

Publicado el boletín Espurna núm. 177, correspondiente al mes de febrero de 2024. 
Incendios forestales > Informes mensuales

08/02/2024

Infomes Post-incendio

Nuevo informe de la Unidad de Análisis de Incendios Forestales UT902 para La Vall d'Ebo 13/08/2022.
Incendios forestales > Informes post-incendio

Datos Meteorológicos

CS VLC ALI
Observatorio Temp H.R. Lluvia Vto. dir. Vel. Fecha
Aitana 5 100 0 3 19/04/2024 14:00
Aixorta 8 79 0 15 19/04/2024 14:00
Alto de Alcola 18 54 2 19/04/2024 14:00
Ametler 14 63 3 38 19/04/2024 14:00
Benicadell 11 63 0 7 19/04/2024 14:00
Besori 18 55 0 6 19/04/2024 14:00
Boqueras 9 71 0 18 19/04/2024 14:00
Cabeçó d'or 10 74 6 19/04/2024 14:00
Cabezo 12 64 0 36 19/04/2024 14:00
Caperucho 17 48 0 7 19/04/2024 14:00
Caroche 9 100 0 6 19/04/2024 14:00
Castillico 13 69 3 19/04/2024 14:00
Cerro Simón 10 51 0 6 19/04/2024 14:00
Cocoll 10 70 1 20 19/04/2024 14:00
Coll de Rates 9 71 32 19/04/2024 14:00
Creu del Gelat 12 30 0 11 19/04/2024 14:00
Desert de les Palmes 10 83 0 15 19/04/2024 14:00
El Frontón 16 50 0 2 19/04/2024 14:00
El Gavilán 10 60 0 25 19/04/2024 14:00
El Salviar 6 100 0 5 19/04/2024 14:00
El Turmell 8 77 0 15 19/04/2024 14:00
Font Roja 5 100 0 12 19/04/2024 14:00
Fredes 9 73 0 6 19/04/2024 14:00
La Travina 13 52 0 7 19/04/2024 14:00
Las Hierbas 15 61 0 7 19/04/2024 14:00
Lloma Bernat 10 74 15 19/04/2024 14:00
Maigmó 7 87 3 10 19/04/2024 14:00
Mariola 8 79 0 4 19/04/2024 14:00
Miserat 16 55 0 6 19/04/2024 14:00
Moluengo 10 75 0 9 19/04/2024 14:00
Mondúver 15 51 0 4 19/04/2024 14:00
Palmeral 19 46 0 12 19/04/2024 14:00
Penyagolosa 10 56 0 29 19/04/2024 14:00
Pico del Remedio 15 48 0 10 19/04/2024 14:00
Pico Ropé 10 71 0 8 19/04/2024 14:00
Puntal Aljibe 9 78 0 10 19/04/2024 14:00
Reclot 8 86 2 25 19/04/2024 14:00
Reconco 5 100 0 26 19/04/2024 14:00
Santa Bárbara 7 74 0 27 19/04/2024 14:00
Santa Faz 18 53 0 6 19/04/2024 14:00
Serrella 16 55 0 7 19/04/2024 14:00
Sierra Martés 11 82 0 6 19/04/2024 14:00
Sierra Negrete 10 68 0 7 19/04/2024 14:00
Subarra 14 64 8 12 19/04/2024 14:00
Vallada 12 63 0 2 19/04/2024 14:00
Alto del Pino 9 85 15 19/04/2024 09:00
Sierra del Ave 8 78 12 19/04/2024 09:00
Municipio Festejo Fecha
Cocentaina Mare de Déu del Miracle 18/04-21/04
Banyeres de Mariola Moros y cristianos 22/04-23/04
Banyeres de Mariola Moros y Cristianos 22/04-25/04
Onil Moros y Cristianos 22/04-22/04
Onil Moros y Cristianos 23/04-01/05
Onil Moros y Cristianos 23/04-23/04
Cofrentes La Maderada 27/04-01/05
Sinarcas San Marcos 27/04-27/04
Bocairent Sant Jaume 30/04-01/05

Leyenda